createdAt,value
2022-12-23T00:00:23.619Z,43.65
2022-12-23T00:03:28.440Z,43.78
2022-12-23T00:06:31.714Z,39.88
2022-12-23T00:09:35.355Z,41.00
2022-12-23T00:12:57.396Z,41.83
2022-12-23T00:16:08.831Z,42.42
2022-12-23T00:19:12.082Z,43.97
2022-12-23T00:22:15.308Z,42.58
2022-12-23T00:25:18.616Z,42.83
2022-12-23T00:28:24.720Z,41.47
2022-12-23T00:31:27.980Z,41.53
2022-12-23T00:34:31.266Z,42.87
2022-12-23T00:37:34.460Z,41.67
2022-12-23T00:40:59.691Z,41.20
2022-12-23T00:44:04.204Z,43.13
2022-12-23T00:47:07.530Z,42.33
2022-12-23T00:50:11.301Z,44.05
2022-12-23T00:53:14.563Z,42.90
2022-12-23T00:56:17.890Z,42.35
2022-12-23T00:59:21.414Z,41.17
2022-12-23T01:02:43.375Z,41.30
2022-12-23T01:05:46.867Z,41.03
2022-12-23T01:08:50.124Z,40.65
2022-12-23T01:11:53.641Z,41.80
2022-12-23T01:14:56.816Z,40.25
2022-12-23T01:18:00.009Z,40.47
2022-12-23T01:21:05.632Z,38.42
2022-12-23T01:24:09.160Z,40.50
2022-12-23T01:27:12.441Z,40.03
2022-12-23T01:30:18.760Z,41.38
2022-12-23T01:33:22.175Z,42.17
2022-12-23T01:36:25.563Z,42.65
2022-12-23T01:39:28.726Z,41.00
2022-12-23T01:42:46.683Z,41.85
2022-12-23T01:45:50.843Z,40.67
2022-12-23T01:48:55.223Z,41.60
2022-12-23T01:51:58.506Z,40.63
2022-12-23T01:55:01.928Z,40.80
2022-12-23T01:58:13.334Z,40.58
2022-12-23T02:01:35.712Z,41.27
2022-12-23T02:04:41.497Z,41.10
2022-12-23T02:08:03.497Z,42.45
2022-12-23T02:11:12.232Z,41.38
2022-12-23T02:14:55.131Z,40.83
2022-12-23T02:18:28.472Z,41.15
2022-12-23T02:21:54.866Z,40.45
2022-12-23T02:25:21.600Z,39.65
2022-12-23T02:28:24.755Z,40.43
2022-12-23T02:31:46.860Z,39.72
2022-12-23T02:35:13.542Z,39.40
2022-12-23T02:38:42.517Z,40.55
2022-12-23T02:41:58.200Z,39.90
2022-12-23T02:45:16.393Z,39.55
2022-12-23T02:48:27.558Z,39.80
2022-12-23T02:51:36.647Z,40.63
2022-12-23T02:54:48.642Z,38.60
2022-12-23T02:57:55.168Z,35.22
2022-12-23T03:01:02.237Z,37.70
2022-12-23T03:04:06.855Z,33.47
2022-12-23T03:07:30.742Z,40.40
2022-12-23T03:10:55.661Z,37.47
2022-12-23T03:14:17.326Z,38.75
2022-12-23T03:17:37.695Z,36.92
2022-12-23T03:21:02.379Z,38.17
2022-12-23T03:24:17.659Z,39.42
2022-12-23T03:27:23.664Z,39.10
2022-12-23T03:30:29.022Z,37.70
2022-12-23T03:33:37.123Z,39.17
2022-12-23T03:36:47.625Z,38.78
2022-12-23T03:39:54.939Z,38.13
2022-12-23T03:43:08.232Z,39.70
2022-12-23T03:46:16.407Z,39.03
2022-12-23T03:49:29.155Z,40.22
2022-12-23T03:52:38.663Z,40.20
2022-12-23T03:55:51.624Z,39.40
2022-12-23T03:59:02.572Z,39.40
2022-12-23T04:02:21.090Z,40.95
2022-12-23T04:05:29.911Z,40.28
2022-12-23T04:08:38.261Z,41.60
2022-12-23T04:11:42.155Z,41.27
2022-12-23T04:14:49.256Z,39.33
2022-12-23T04:17:54.455Z,39.90
2022-12-23T04:21:00.384Z,40.97
2022-12-23T04:24:03.638Z,38.78
2022-12-23T04:27:08.094Z,38.90
2022-12-23T04:30:13.908Z,38.67
2022-12-23T04:33:17.355Z,38.22
2022-12-23T04:36:20.523Z,37.57
2022-12-23T04:39:23.915Z,36.75
2022-12-23T04:42:27.154Z,37.28
2022-12-23T04:45:30.347Z,37.30
2022-12-23T04:48:33.570Z,35.83
2022-12-23T04:51:36.806Z,37.38
2022-12-23T04:54:45.725Z,37.70
2022-12-23T04:57:49.575Z,35.72
2022-12-23T05:01:11.906Z,37.40
2022-12-23T05:04:15.212Z,36.08
2022-12-23T05:07:18.919Z,37.17
2022-12-23T05:10:22.920Z,36.20
2022-12-23T05:13:26.124Z,37.80
2022-12-23T05:16:31.252Z,35.58
2022-12-23T05:19:34.622Z,35.03
2022-12-23T05:22:38.285Z,35.58
2022-12-23T05:25:41.505Z,33.58
2022-12-23T05:28:45.711Z,33.00
2022-12-23T05:31:49.015Z,28.85
2022-12-23T05:34:52.311Z,30.80
2022-12-23T05:37:55.474Z,31.52
2022-12-23T05:40:58.909Z,30.00
2022-12-23T05:44:02.041Z,31.52
2022-12-23T05:47:05.871Z,28.45
2022-12-23T05:50:09.476Z,31.90
2022-12-23T05:53:12.990Z,30.90
2022-12-23T05:56:16.165Z,30.30
2022-12-23T05:59:19.447Z,29.17
2022-12-23T06:02:23.066Z,28.83
2022-12-23T06:05:26.395Z,28.67
2022-12-23T06:08:29.902Z,28.52
2022-12-23T06:11:33.173Z,26.83
2022-12-23T06:14:36.399Z,28.33
2022-12-23T06:17:39.702Z,26.98
2022-12-23T06:20:47.675Z,27.60
2022-12-23T06:23:51.318Z,26.33
2022-12-23T06:26:57.208Z,27.10
2022-12-23T06:30:01.361Z,27.90
2022-12-23T06:33:04.613Z,27.33
2022-12-23T06:36:08.533Z,26.73
2022-12-23T06:39:11.972Z,26.88
2022-12-23T06:42:15.207Z,27.33
2022-12-23T06:45:18.587Z,28.27
2022-12-23T06:48:22.037Z,30.38
2022-12-23T06:51:25.281Z,30.33
2022-12-23T06:54:28.436Z,30.80
2022-12-23T06:57:31.645Z,31.88
2022-12-23T07:00:35.347Z,31.90
2022-12-23T07:03:39.070Z,32.72
2022-12-23T07:06:42.840Z,33.63
2022-12-23T07:09:46.143Z,35.70
2022-12-23T07:12:51.017Z,30.25
2022-12-23T07:15:54.420Z,36.38
2022-12-23T07:18:57.608Z,34.27
2022-12-23T07:22:00.840Z,36.45
2022-12-23T07:25:04.402Z,32.30
2022-12-23T07:28:07.731Z,37.83
2022-12-23T07:31:11.161Z,33.58
2022-12-23T07:34:14.531Z,36.87
2022-12-23T07:37:17.705Z,34.90
2022-12-23T07:40:24.972Z,31.27
2022-12-23T07:43:28.117Z,33.45
2022-12-23T07:46:31.502Z,36.70
2022-12-23T07:49:34.855Z,36.38
2022-12-23T07:52:38.553Z,37.58
2022-12-23T07:55:41.910Z,37.72
2022-12-23T07:58:49.657Z,37.37
2022-12-23T08:01:52.997Z,38.58
2022-12-23T08:04:57.250Z,37.38
2022-12-23T08:08:00.463Z,38.13
2022-12-23T08:11:07.588Z,35.15
2022-12-23T08:14:10.771Z,37.60
2022-12-23T08:17:14.413Z,38.63
2022-12-23T08:20:18.602Z,38.13
2022-12-23T08:23:24.867Z,39.30
2022-12-23T08:26:28.391Z,39.50
2022-12-23T08:29:36.270Z,38.80
2022-12-23T08:32:39.838Z,36.92
2022-12-23T08:35:46.735Z,37.65
2022-12-23T08:38:50.725Z,38.70
2022-12-23T08:41:54.097Z,35.80
2022-12-23T08:44:57.264Z,37.85
2022-12-23T08:48:00.459Z,40.45
2022-12-23T08:51:06.978Z,38.45
2022-12-23T08:54:10.762Z,41.45
2022-12-23T08:57:13.970Z,40.10
2022-12-23T09:00:17.871Z,40.35
2022-12-23T09:03:21.203Z,37.90
2022-12-23T09:06:29.834Z,38.85
2022-12-23T09:09:33.737Z,36.87
2022-12-23T09:12:38.940Z,37.88
2022-12-23T09:15:45.854Z,32.55
2022-12-23T09:18:49.145Z,30.25
2022-12-23T09:21:52.371Z,34.47
2022-12-23T09:24:58.641Z,36.58
2022-12-23T09:28:07.711Z,36.83
2022-12-23T09:31:12.940Z,35.42
2022-12-23T09:34:16.088Z,35.17
2022-12-23T09:37:20.360Z,35.07
2022-12-23T09:40:29.122Z,29.80
2022-12-23T09:44:06.661Z,33.85
2022-12-23T09:47:23.184Z,34.58
2022-12-23T09:50:32.948Z,33.73
2022-12-23T09:53:59.245Z,34.88
2022-12-23T09:57:45.355Z,35.90
2022-12-23T10:01:04.308Z,34.80
2022-12-23T10:04:23.036Z,34.20
2022-12-23T10:07:46.678Z,35.57
2022-12-23T10:10:55.897Z,34.22
2022-12-23T10:14:20.440Z,34.35
2022-12-23T10:17:38.896Z,31.77
2022-12-23T10:21:07.143Z,33.73
2022-12-23T10:24:31.431Z,34.20
2022-12-23T10:27:42.393Z,31.30
2022-12-23T10:31:17.134Z,33.35
2022-12-23T10:34:38.412Z,33.22
2022-12-23T10:37:51.033Z,34.37
2022-12-23T10:41:16.630Z,36.33
2022-12-23T10:44:41.488Z,34.78
2022-12-23T10:47:57.575Z,34.22
2022-12-23T10:51:07.363Z,35.97
2022-12-23T10:54:15.520Z,33.47
2022-12-23T10:57:20.818Z,36.28
2022-12-23T11:00:26.909Z,37.05
2022-12-23T11:03:52.996Z,36.88
2022-12-23T11:07:26.439Z,36.60
2022-12-23T11:10:23.574Z,34.90
2022-12-23T11:13:37.075Z,37.80
2022-12-23T11:16:47.063Z,32.63
2022-12-23T11:20:10.433Z,35.80
2022-12-23T11:23:26.912Z,34.83
2022-12-23T11:26:30.147Z,35.97
2022-12-23T11:29:48.398Z,36.70
2022-12-23T11:32:52.606Z,37.45
2022-12-23T11:36:14.587Z,35.97
2022-12-23T11:39:27.692Z,36.63
2022-12-23T11:42:34.089Z,36.13
2022-12-23T11:45:38.365Z,34.40
2022-12-23T11:48:41.623Z,30.02
2022-12-23T11:52:01.902Z,34.28
2022-12-23T11:55:07.065Z,31.30
2022-12-23T11:58:19.651Z,31.00
2022-12-23T12:01:25.324Z,34.10
2022-12-23T12:04:33.785Z,31.63
2022-12-23T12:07:37.195Z,33.08
2022-12-23T12:10:43.145Z,29.20
2022-12-23T12:13:49.898Z,30.60
2022-12-23T12:17:02.797Z,31.80
2022-12-23T12:20:12.650Z,29.23
2022-12-23T12:23:35.512Z,28.48
2022-12-23T12:26:40.906Z,30.27
2022-12-23T12:30:13.804Z,30.33
2022-12-23T12:33:48.470Z,33.17
2022-12-23T12:37:02.732Z,33.47
2022-12-23T12:40:20.954Z,34.42
2022-12-23T12:43:35.460Z,34.67
2022-12-23T12:46:58.406Z,34.67
2022-12-23T12:50:10.967Z,32.13
2022-12-23T12:53:21.732Z,33.55
2022-12-23T12:56:55.952Z,32.45
2022-12-23T13:00:06.097Z,33.97
2022-12-23T13:03:29.113Z,35.30
2022-12-23T13:07:00.695Z,34.70
2022-12-23T13:10:32.218Z,35.08
2022-12-23T13:13:50.523Z,36.47
2022-12-23T13:17:27.419Z,33.83
2022-12-23T13:20:42.174Z,33.78
2022-12-23T13:24:03.793Z,33.50
2022-12-23T13:27:17.329Z,34.97
2022-12-23T13:30:24.198Z,32.83
2022-12-23T13:33:46.194Z,35.30
2022-12-23T13:37:20.481Z,36.15
2022-12-23T13:40:44.410Z,37.28
2022-12-23T13:44:05.805Z,37.45
2022-12-23T13:47:30.335Z,40.97
2022-12-23T13:50:40.756Z,40.63
2022-12-23T13:54:05.109Z,41.42
2022-12-23T13:57:20.189Z,41.63
2022-12-23T14:00:34.736Z,44.00
2022-12-23T14:03:39.616Z,45.17
2022-12-23T14:06:48.193Z,47.13
2022-12-23T14:09:58.362Z,48.72
2022-12-23T14:13:05.292Z,50.13
2022-12-23T14:16:36.087Z,52.58
2022-12-23T14:19:52.287Z,53.45
2022-12-23T14:23:39.015Z,53.13
2022-12-23T14:27:08.427Z,52.53
2022-12-23T14:30:37.978Z,52.40
2022-12-23T14:33:48.376Z,52.78
2022-12-23T14:37:16.523Z,54.55
2022-12-23T14:40:38.092Z,52.70
2022-12-23T14:43:47.216Z,50.25
2022-12-23T14:46:50.456Z,52.50
2022-12-23T14:49:53.779Z,45.20
2022-12-23T14:53:01.898Z,45.42
2022-12-23T14:56:19.099Z,48.47
2022-12-23T14:59:32.458Z,48.50
2022-12-23T15:02:39.084Z,38.92
2022-12-23T15:05:43.394Z,44.13
2022-12-23T15:08:48.724Z,47.45
2022-12-23T15:11:53.577Z,46.13
2022-12-23T15:15:06.502Z,46.20
2022-12-23T15:18:13.687Z,44.47
2022-12-23T15:21:17.021Z,46.28
2022-12-23T15:24:23.656Z,45.63
2022-12-23T15:27:30.081Z,44.73
2022-12-23T15:30:46.079Z,44.30
2022-12-23T15:34:03.000Z,43.25
2022-12-23T15:37:12.389Z,43.53
2022-12-23T15:40:30.137Z,39.47
2022-12-23T15:43:40.168Z,41.73
2022-12-23T15:46:43.572Z,40.15
2022-12-23T15:49:47.121Z,37.72
2022-12-23T15:52:54.496Z,42.05
2022-12-23T15:56:06.707Z,42.88
2022-12-23T15:59:28.233Z,42.63
2022-12-23T16:06:16.267Z,38.90
2022-12-23T16:09:19.709Z,38.60
2022-12-23T16:12:27.664Z,40.70
2022-12-23T16:15:33.344Z,40.50
2022-12-23T16:18:47.527Z,43.00
2022-12-23T16:21:51.418Z,41.63
2022-12-23T16:25:03.385Z,41.85
2022-12-23T16:28:21.616Z,42.28
2022-12-23T16:31:25.391Z,40.73
2022-12-23T16:34:31.588Z,41.92
2022-12-23T16:37:34.795Z,43.08
2022-12-23T16:40:38.436Z,44.42
2022-12-23T16:43:49.419Z,45.30
2022-12-23T16:46:54.910Z,45.27
2022-12-23T16:49:58.358Z,44.70
2022-12-23T16:53:01.627Z,43.10
2022-12-23T16:56:18.118Z,44.75
2022-12-23T16:59:21.516Z,43.88
2022-12-23T17:02:28.755Z,43.47
2022-12-23T17:05:32.148Z,43.80
2022-12-23T17:08:35.454Z,45.58
2022-12-23T17:11:50.698Z,46.75
2022-12-23T17:14:54.027Z,43.97
2022-12-23T17:17:57.273Z,42.70
2022-12-23T17:21:00.826Z,44.38
2022-12-23T17:24:24.541Z,42.97
2022-12-23T17:27:27.952Z,42.47
2022-12-23T17:30:37.232Z,40.97
2022-12-23T17:33:40.691Z,42.67
2022-12-23T17:36:49.503Z,39.30
2022-12-23T17:39:53.559Z,40.78
2022-12-23T17:42:56.848Z,39.38
2022-12-23T17:46:00.216Z,41.20
2022-12-23T17:49:03.498Z,40.80
2022-12-23T17:52:07.015Z,37.10
2022-12-23T17:55:22.765Z,38.97
2022-12-23T17:58:26.063Z,37.78
2022-12-23T18:01:31.626Z,38.03
2022-12-23T18:04:35.068Z,38.60
2022-12-23T18:07:38.302Z,38.85
2022-12-23T18:10:42.563Z,38.47
2022-12-23T18:13:46.623Z,37.65
2022-12-23T18:16:50.020Z,37.40
2022-12-23T18:19:53.514Z,35.60
2022-12-23T18:22:59.285Z,37.63
2022-12-23T18:26:02.859Z,39.17
2022-12-23T18:29:06.082Z,39.58
2022-12-23T18:32:25.092Z,42.45
2022-12-23T18:35:35.469Z,43.00
2022-12-23T18:38:39.004Z,45.42
2022-12-23T18:41:42.250Z,43.92
2022-12-23T18:44:48.184Z,44.92
2022-12-23T18:47:51.376Z,43.00
2022-12-23T18:50:55.263Z,42.87
2022-12-23T18:53:58.483Z,42.67
2022-12-23T18:57:02.806Z,39.40
2022-12-23T19:00:12.498Z,37.90
2022-12-23T19:03:29.793Z,35.58
2022-12-23T19:06:33.152Z,33.30
2022-12-23T19:09:36.403Z,34.15
2022-12-23T19:12:39.645Z,35.42
2022-12-23T19:15:43.909Z,34.42
2022-12-23T19:18:48.392Z,34.38
2022-12-23T19:21:51.726Z,33.77
2022-12-23T19:25:05.413Z,33.60
2022-12-23T19:28:10.518Z,35.67
2022-12-23T19:31:16.122Z,34.50
2022-12-23T19:34:19.335Z,34.35
2022-12-23T19:37:22.512Z,36.17
2022-12-23T19:40:26.580Z,37.05
2022-12-23T19:43:29.795Z,35.08
2022-12-23T19:46:33.151Z,35.20
2022-12-23T19:49:36.432Z,30.42
2022-12-23T19:52:39.742Z,34.13
2022-12-23T19:55:43.066Z,33.45
2022-12-23T19:58:46.689Z,35.78
2022-12-23T20:01:50.056Z,35.95
2022-12-23T20:04:53.387Z,36.63
2022-12-23T20:07:56.615Z,35.30
2022-12-23T20:11:09.106Z,34.50
2022-12-23T20:14:13.999Z,35.05
2022-12-23T20:17:17.225Z,34.55
2022-12-23T20:20:20.751Z,36.22
2022-12-23T20:23:24.425Z,35.97
2022-12-23T20:26:29.125Z,33.85
2022-12-23T20:29:35.354Z,37.10
2022-12-23T20:32:38.961Z,36.17
2022-12-23T20:35:42.135Z,35.63
2022-12-23T20:38:46.401Z,35.80
2022-12-23T20:41:49.646Z,38.75
2022-12-23T20:44:53.525Z,38.20
2022-12-23T20:47:56.915Z,37.38
2022-12-23T20:51:11.350Z,38.75
2022-12-23T20:54:14.508Z,37.87
2022-12-23T20:57:17.823Z,37.88
2022-12-23T21:00:22.287Z,37.38
2022-12-23T21:03:25.559Z,37.33
2022-12-23T21:06:31.751Z,35.17
2022-12-23T21:09:35.269Z,35.45
2022-12-23T21:12:38.603Z,35.28
2022-12-23T21:15:41.798Z,34.80
2022-12-23T21:18:50.528Z,35.47
2022-12-23T21:21:54.120Z,36.13
2022-12-23T21:24:57.325Z,34.50
2022-12-23T21:28:00.503Z,34.35
2022-12-23T21:31:06.251Z,34.35
2022-12-23T21:34:10.924Z,35.05
2022-12-23T21:37:14.185Z,35.63
2022-12-23T21:40:17.463Z,35.92
2022-12-23T21:43:20.627Z,35.78
2022-12-23T21:46:25.770Z,37.58
2022-12-23T21:49:28.986Z,36.40
2022-12-23T21:52:32.687Z,35.13
2022-12-23T21:55:35.925Z,34.80
2022-12-23T21:58:39.876Z,35.17
2022-12-23T22:01:43.498Z,35.15
2022-12-23T22:04:46.980Z,36.05
2022-12-23T22:07:50.272Z,34.83
2022-12-23T22:10:55.544Z,33.95
2022-12-23T22:14:00.566Z,35.50
2022-12-23T22:17:03.685Z,33.33
2022-12-23T22:20:07.784Z,34.85
2022-12-23T22:23:12.122Z,34.27
2022-12-23T22:26:24.559Z,35.80
2022-12-23T22:29:28.743Z,37.65
2022-12-23T22:32:32.014Z,37.50
2022-12-23T22:35:35.260Z,36.67
2022-12-23T22:38:38.593Z,36.23
2022-12-23T22:41:41.847Z,37.45
2022-12-23T22:44:45.157Z,36.55
2022-12-23T22:47:48.312Z,35.95
2022-12-23T22:50:53.741Z,35.63
2022-12-23T22:53:57.907Z,34.33
2022-12-23T22:57:01.308Z,35.13
2022-12-23T23:00:11.922Z,35.65
2022-12-23T23:03:17.648Z,36.97
2022-12-23T23:06:20.832Z,36.88
2022-12-23T23:09:24.194Z,41.20
2022-12-23T23:12:27.423Z,41.40
2022-12-23T23:15:30.675Z,43.42
2022-12-23T23:18:34.373Z,40.88
2022-12-23T23:21:37.994Z,41.85
2022-12-23T23:24:41.215Z,40.53
2022-12-23T23:27:46.791Z,42.00
2022-12-23T23:31:03.623Z,41.45
2022-12-23T23:34:15.993Z,40.33
2022-12-23T23:37:19.256Z,40.70
2022-12-23T23:40:25.607Z,41.37
2022-12-23T23:43:28.839Z,40.92
2022-12-23T23:46:32.108Z,41.00
2022-12-23T23:49:35.397Z,40.75
2022-12-23T23:52:38.671Z,38.92
2022-12-23T23:55:42.246Z,40.43
2022-12-23T23:58:45.622Z,39.25
